• Join FlightAware (Why Join?)
  • Login
  • US Flag 
07:23AM EST


 

Airport Tracker/Info


-or-


 

Live Flight TrackerFlight Track Log ✈ N690TW ✈ 15-Mar-2014 ✈ KBJC - KSBS

Flight Track Log - Related Links

Times and Time Zones

All times are in EDT time to prevent confusion due to time zone crossing. See the N690TW flight status page for this flight to view local times or setup timezone preferences in your user account.

Time Position Orientation Groundspeed Altitude Reporting Facility
EDT Latitude Longitude Course Direction KTS MPH feet Rate Location/Type
09:39AM 39.9333 -105.1333 21° North 150 173 6,800  Level Denver TRACON
09:40AM 39.9667 -105.1167 21° North 159 183 8,600 1,810 Climbing Denver TRACON
09:41AM 40.0000 -105.1667 311° West 159 183 10,600 1,721 Climbing Denver TRACON
09:42AM 40.0047 -105.2258 276° West 168 193 12,300 1,884 Climbing Denver Center
09:43AM 40.0083 -105.2878 274° West 172 198 14,400 1,916 Climbing Denver Center
09:44AM 40.0122 -105.3481 275° West 171 197 16,100 1,632 Climbing Denver Center
09:45AM 40.0161 -105.4200 274° West 180 207 17,800 1,776 Climbing Denver Center
09:46AM 40.0200 -105.4861 274° West 184 212 19,800 1,686 Climbing Denver Center
09:47AM 40.0233 -105.5453 274° West 178 205 21,200 1,091 Climbing Denver Center
09:48AM 40.0275 -105.6164 274° West 188 216 22,000 390 Climbing Denver Center
09:49AM 40.0289 -105.7039 271° West 229 264 22,000  Level Denver Center
09:50AM 40.0256 -105.7903 267° West 237 273 22,000  Level Denver Center
09:51AM 40.0242 -105.8756 269° West 237 273 22,000  Level Denver Center
09:52AM 40.0217 -105.9594 268° West 202 232 22,000  Level Denver Center
09:53AM 40.0189 -106.0222 267° West 177 204 22,000  Level Denver Center
09:54AM 40.0161 -106.0858 267° West 178 205 22,000  Level Denver Center
09:55AM 40.0144 -106.1475 268° West 172 198 22,000  Level Denver Center
09:56AM 40.0128 -106.2103 268° West 173 199 22,000  Level Denver Center
09:57AM 40.0092 -106.2728 266° West 173 199 22,000  Level Denver Center
09:58AM 40.0072 -106.3364 268° West 174 200 22,000 -393 Level Denver Center
09:59AM 40.0147 -106.4042 278° West 196 226 21,200 -1,008 Descending Denver Center
10:00AM 40.0839 -106.4278 345° North 253 291 20,000 -1,415 Descending Denver Center
10:01AM 40.1581 -106.4364 355° North 261 300 18,300 -1,584 Descending Denver Center
10:02AM 40.2328 -106.4461 354° North 266 306 16,700 -1,525 Descending Denver Center
10:03AM 40.2561 -106.5181 293° West 236 272 15,200 -780 Descending Denver Center
10:04AM 40.2678 -106.5825 283° West 205 236 15,100 -496 Descending Denver Center
10:05AM 40.2606 -106.6619 263° West 190 219 14,200 -787 Descending Denver Center
10:06AM 40.2542 -106.7100 260° West 181 208 13,500 -537 Descending Denver Center
10:07AM 40.2400 -106.7872 257° West 178 205 13,100 -246 Descending Denver Center
10:08AM 40.2733 -106.8225 321° Northwest 184 212 13,000 -585 Descending Denver Center
10:09AM 40.3267 -106.8225 360° North 186 214 11,900 -1,082 Descending Denver Center